createdAt,value
2023-01-02T00:01:32.720Z,16.48
2023-01-02T00:04:00.525Z,11.98
2023-01-02T00:06:27.556Z,11.68
2023-01-02T00:08:54.436Z,11.75
2023-01-02T00:11:21.444Z,10.63
2023-01-02T00:13:48.309Z,10.13
2023-01-02T00:16:15.499Z,10.88
2023-01-02T00:18:43.904Z,10.38
2023-01-02T00:21:10.845Z,10.63
2023-01-02T00:23:41.313Z,11.55
2023-01-02T00:26:09.011Z,11.68
2023-01-02T00:28:37.361Z,12.07
2023-01-02T00:31:13.318Z,14.32
2023-01-02T00:33:40.496Z,20.15
2023-01-02T00:36:09.638Z,27.48
2023-01-02T00:38:38.448Z,29.10
2023-01-02T00:41:05.746Z,31.38
2023-01-02T00:43:32.784Z,28.92
2023-01-02T00:46:00.091Z,26.55
2023-01-02T00:48:27.181Z,24.60
2023-01-02T00:50:53.993Z,21.33
2023-01-02T00:53:23.972Z,23.65
2023-01-02T00:56:03.504Z,19.05
2023-01-02T00:58:30.405Z,16.27
2023-01-02T01:00:57.485Z,16.55
2023-01-02T01:03:28.965Z,13.70
2023-01-02T01:05:55.784Z,13.10
2023-01-02T01:08:22.637Z,11.80
2023-01-02T01:10:49.605Z,11.93
2023-01-02T01:13:16.702Z,12.15
2023-01-02T01:15:46.014Z,12.35
2023-01-02T01:18:13.037Z,10.45
2023-01-02T01:20:40.005Z,9.27
2023-01-02T01:23:06.984Z,10.35
2023-01-02T01:25:33.907Z,9.07
2023-01-02T01:28:00.729Z,9.90
2023-01-02T01:30:28.127Z,9.70
2023-01-02T01:32:55.216Z,8.55
2023-01-02T01:35:22.229Z,9.88
2023-01-02T01:37:49.165Z,9.70
2023-01-02T01:40:16.047Z,10.02
2023-01-02T01:42:42.982Z,15.50
2023-01-02T01:45:14.984Z,16.60
2023-01-02T01:48:12.508Z,13.13
2023-01-02T01:50:39.788Z,12.98
2023-01-02T01:53:16.520Z,10.57
2023-01-02T01:55:51.702Z,8.43
2023-01-02T01:58:26.865Z,8.88
2023-01-02T02:01:21.820Z,8.88
2023-01-02T02:03:50.856Z,7.55
2023-01-02T02:06:19.642Z,8.02
2023-01-02T02:09:00.942Z,8.02
2023-01-02T02:14:00.103Z,11.23
2023-01-02T02:16:50.533Z,10.00
2023-01-02T02:19:29.590Z,11.88
2023-01-02T02:22:28.805Z,10.45
2023-01-02T02:25:01.677Z,9.27
2023-01-02T02:28:17.446Z,7.40
2023-01-02T02:31:02.365Z,11.93
2023-01-02T02:33:48.290Z,21.48
2023-01-02T02:36:32.753Z,22.90
2023-01-02T02:39:27.949Z,23.70
2023-01-02T02:42:10.630Z,22.77
2023-01-02T02:45:05.512Z,22.90
2023-01-02T02:47:52.691Z,16.92
2023-01-02T02:50:35.868Z,17.77
2023-01-02T02:53:16.872Z,22.88
2023-01-02T02:55:48.910Z,23.40
2023-01-02T02:58:19.015Z,26.00
2023-01-02T03:00:45.988Z,24.25
2023-01-02T03:03:19.019Z,21.85
2023-01-02T03:06:08.251Z,20.17
2023-01-02T03:08:47.245Z,17.77
2023-01-02T03:11:15.895Z,13.75
2023-01-02T03:14:07.369Z,10.82
2023-01-02T03:16:39.801Z,8.57
2023-01-02T03:19:14.900Z,8.13
2023-01-02T03:21:57.432Z,8.00
2023-01-02T03:24:26.665Z,9.25
2023-01-02T03:27:03.134Z,9.32
2023-01-02T03:29:39.746Z,9.68
2023-01-02T03:32:13.340Z,9.27
2023-01-02T03:34:43.338Z,8.38
2023-01-02T03:37:15.497Z,8.48
2023-01-02T03:39:51.701Z,8.18
2023-01-02T03:42:30.510Z,6.80
2023-01-02T03:45:16.246Z,6.10
2023-01-02T03:48:08.450Z,6.68
2023-01-02T03:51:02.285Z,7.97
2023-01-02T03:53:35.930Z,9.20
2023-01-02T03:56:16.434Z,7.45
2023-01-02T03:59:03.676Z,7.20
2023-01-02T04:01:40.585Z,5.05
2023-01-02T04:04:15.116Z,5.38
2023-01-02T04:06:48.295Z,4.60
2023-01-02T04:09:24.419Z,5.45
2023-01-02T04:12:00.879Z,6.78
2023-01-02T04:14:33.613Z,9.88
2023-01-02T04:17:04.299Z,14.27
2023-01-02T04:19:52.386Z,15.63
2023-01-02T04:22:30.220Z,8.50
2023-01-02T04:25:13.773Z,8.15
2023-01-02T04:27:53.436Z,7.90
2023-01-02T04:30:20.417Z,7.35
2023-01-02T04:32:48.951Z,7.88
2023-01-02T04:35:21.433Z,8.65
2023-01-02T04:37:48.555Z,10.48
2023-01-02T04:40:25.702Z,12.95
2023-01-02T04:42:53.105Z,16.23
2023-01-02T04:45:20.108Z,11.52
2023-01-02T04:47:50.608Z,12.30
2023-01-02T04:50:17.983Z,14.77
2023-01-02T04:52:45.143Z,20.33
2023-01-02T04:55:12.032Z,13.70
2023-01-02T04:57:39.432Z,7.13
2023-01-02T05:00:08.332Z,7.70
2023-01-02T05:02:36.998Z,6.88
2023-01-02T05:05:06.491Z,7.60
2023-01-02T05:07:34.948Z,7.72
2023-01-02T05:10:04.585Z,7.85
2023-01-02T05:12:37.530Z,8.65
2023-01-02T05:15:17.957Z,14.57
2023-01-02T05:17:44.952Z,11.68
2023-01-02T05:20:13.202Z,12.73
2023-01-02T05:23:00.535Z,18.38
2023-01-02T05:25:31.711Z,23.13
2023-01-02T05:27:58.921Z,51.15
2023-01-02T05:30:25.978Z,36.40
2023-01-02T05:32:53.793Z,23.42
2023-01-02T05:35:22.161Z,20.20
2023-01-02T05:37:50.524Z,20.08
2023-01-02T05:40:17.545Z,16.90
2023-01-02T05:42:44.463Z,20.73
2023-01-02T05:45:11.389Z,25.83
2023-01-02T05:47:38.387Z,19.75
2023-01-02T05:50:06.161Z,25.25
2023-01-02T05:52:33.203Z,22.90
2023-01-02T05:55:01.243Z,28.02
2023-01-02T05:57:28.394Z,14.57
2023-01-02T05:59:55.563Z,12.98
2023-01-02T06:02:22.864Z,17.90
2023-01-02T06:04:49.849Z,25.65
2023-01-02T06:07:16.937Z,40.72
2023-01-02T06:09:44.007Z,29.98
2023-01-02T06:12:10.892Z,28.33
2023-01-02T06:14:37.751Z,17.58
2023-01-02T06:17:04.798Z,15.80
2023-01-02T06:19:31.861Z,22.67
2023-01-02T06:21:58.757Z,21.05
2023-01-02T06:24:25.909Z,24.35
2023-01-02T06:26:52.876Z,18.55
2023-01-02T06:29:19.762Z,18.25
2023-01-02T06:31:51.292Z,17.13
2023-01-02T06:34:18.780Z,16.27
2023-01-02T06:36:45.867Z,16.55
2023-01-02T06:39:12.880Z,21.58
2023-01-02T06:41:39.668Z,22.90
2023-01-02T06:44:06.714Z,19.52
2023-01-02T06:46:33.732Z,16.25
2023-01-02T06:49:00.649Z,20.30
2023-01-02T06:51:27.534Z,36.97
2023-01-02T06:53:54.385Z,33.80
2023-01-02T06:56:21.749Z,26.83
2023-01-02T06:58:48.892Z,24.13
2023-01-02T07:01:22.343Z,24.20
2023-01-02T07:03:49.691Z,17.48
2023-01-02T07:06:22.582Z,20.10
2023-01-02T07:08:50.432Z,26.10
2023-01-02T07:11:23.283Z,37.63
2023-01-02T07:13:53.166Z,39.60
2023-01-02T07:16:21.946Z,28.23
2023-01-02T07:18:49.472Z,20.50
2023-01-02T07:21:18.398Z,20.17
2023-01-02T07:23:45.741Z,16.95
2023-01-02T07:26:13.856Z,13.68
2023-01-02T07:28:41.412Z,16.30
2023-01-02T07:31:13.405Z,19.33
2023-01-02T07:33:41.446Z,15.45
2023-01-02T07:36:12.280Z,10.52
2023-01-02T07:38:39.628Z,10.40
2023-01-02T07:41:18.750Z,10.35
2023-01-02T07:43:46.957Z,11.15
2023-01-02T07:46:19.386Z,11.93
2023-01-02T07:48:46.956Z,10.82
2023-01-02T07:51:26.703Z,11.75
2023-01-02T07:54:06.602Z,13.43
2023-01-02T07:59:03.872Z,12.00
2023-01-02T08:01:30.979Z,14.15
2023-01-02T08:03:58.141Z,15.38
2023-01-02T08:06:25.274Z,22.50
2023-01-02T08:08:52.124Z,19.30
2023-01-02T08:11:21.329Z,21.55
2023-01-02T08:13:48.524Z,20.75
2023-01-02T08:16:21.303Z,21.08
2023-01-02T08:18:51.543Z,28.50
2023-01-02T08:21:18.753Z,26.38
2023-01-02T08:23:45.829Z,23.83
2023-01-02T08:26:12.784Z,27.73
2023-01-02T08:28:41.394Z,25.15
2023-01-02T08:31:11.679Z,24.23
2023-01-02T08:33:38.982Z,29.13
2023-01-02T08:36:06.338Z,20.42
2023-01-02T08:38:33.367Z,18.02
2023-01-02T08:41:00.747Z,17.42
2023-01-02T08:43:28.021Z,28.85
2023-01-02T08:45:55.731Z,24.50
2023-01-02T08:48:22.893Z,18.90
2023-01-02T08:50:50.498Z,21.38
2023-01-02T08:53:18.305Z,55.85
2023-01-02T08:55:45.499Z,145.02
2023-01-02T08:58:12.623Z,19.73
2023-01-02T09:00:39.912Z,141.77
2023-01-02T09:03:07.189Z,89.38
2023-01-02T09:05:34.646Z,19.88
2023-01-02T09:08:03.137Z,49.08
2023-01-02T09:10:30.247Z,18.55
2023-01-02T09:12:59.039Z,72.68
2023-01-02T09:15:29.926Z,31.67
2023-01-02T09:17:56.965Z,19.65
2023-01-02T09:20:24.021Z,17.05
2023-01-02T09:22:51.403Z,13.95
2023-01-02T09:25:23.890Z,12.48
2023-01-02T09:27:51.960Z,15.77
2023-01-02T09:30:19.199Z,15.18
2023-01-02T09:32:46.449Z,16.38
2023-01-02T09:35:13.514Z,14.60
2023-01-02T09:37:40.382Z,14.65
2023-01-02T09:40:08.459Z,15.23
2023-01-02T09:42:36.040Z,13.93
2023-01-02T09:45:08.856Z,12.25
2023-01-02T09:47:40.205Z,17.48
2023-01-02T09:50:18.796Z,16.42
2023-01-02T09:52:54.852Z,16.10
2023-01-02T09:55:33.299Z,18.58
2023-01-02T09:58:38.665Z,16.73
2023-01-02T10:01:12.726Z,18.77
2023-01-02T10:03:49.689Z,18.33
2023-01-02T10:06:24.966Z,18.48
2023-01-02T10:09:11.092Z,20.52
2023-01-02T10:12:08.076Z,23.02
2023-01-02T10:14:58.579Z,26.75
2023-01-02T10:17:29.698Z,23.85
2023-01-02T10:20:02.565Z,21.50
2023-01-02T10:22:34.469Z,25.73
2023-01-02T10:25:22.491Z,23.45
2023-01-02T10:27:55.088Z,18.48
2023-01-02T10:30:25.021Z,14.98
2023-01-02T10:33:10.073Z,16.73
2023-01-02T10:35:53.741Z,19.75
2023-01-02T10:38:21.675Z,17.63
2023-01-02T10:40:51.148Z,15.60
2023-01-02T10:43:19.730Z,19.42
2023-01-02T10:45:53.151Z,15.43
2023-01-02T10:48:27.243Z,13.10
2023-01-02T10:50:57.903Z,13.45
2023-01-02T10:53:37.631Z,16.55
2023-01-02T10:56:17.494Z,14.60
2023-01-02T10:58:50.501Z,13.05
2023-01-02T11:01:22.960Z,17.45
2023-01-02T11:04:16.696Z,15.15
2023-01-02T11:07:45.285Z,11.10
2023-01-02T11:10:46.969Z,10.48
2023-01-02T11:17:24.244Z,8.57
2023-01-02T11:19:54.884Z,9.43
2023-01-02T11:22:32.637Z,9.20
2023-01-02T11:25:02.686Z,10.25
2023-01-02T11:27:42.823Z,11.57
2023-01-02T11:30:24.348Z,8.30
2023-01-02T11:36:11.879Z,7.72
2023-01-02T11:38:44.476Z,7.88
2023-01-02T11:42:09.511Z,5.63
2023-01-02T11:44:42.031Z,8.10
2023-01-02T11:47:44.097Z,6.85
2023-01-02T11:50:43.355Z,7.22
2023-01-02T11:53:14.129Z,3.45
2023-01-02T11:55:51.548Z,5.00
2023-01-02T11:58:37.496Z,3.53
2023-01-02T12:01:53.588Z,4.78
2023-01-02T12:04:23.657Z,3.20
2023-01-02T12:06:50.836Z,3.35
2023-01-02T12:09:40.846Z,4.10
2023-01-02T12:12:45.189Z,2.33
2023-01-02T12:15:30.362Z,2.20
2023-01-02T12:18:36.353Z,2.20
2023-01-02T12:21:25.564Z,1.73
2023-01-02T12:24:11.129Z,1.00
2023-01-02T12:26:57.706Z,1.27
2023-01-02T12:29:50.761Z,2.67
2023-01-02T12:32:52.025Z,1.92
2023-01-02T12:35:43.166Z,2.10
2023-01-02T12:38:19.523Z,2.17
2023-01-02T12:41:10.785Z,1.02
2023-01-02T12:43:50.109Z,0.80
2023-01-02T12:46:25.889Z,1.35
2023-01-02T12:49:04.793Z,2.38
2023-01-02T12:52:07.423Z,2.20
2023-01-02T12:54:44.218Z,21.85
2023-01-02T12:57:46.264Z,7.10
2023-01-02T13:00:47.938Z,8.18
2023-01-02T13:06:43.064Z,9.98
2023-01-02T13:09:09.081Z,5.20
2023-01-02T13:11:46.925Z,3.10
2023-01-02T13:14:20.689Z,6.93
2023-01-02T13:16:55.585Z,6.75
2023-01-02T13:19:40.863Z,13.30
2023-01-02T13:22:21.260Z,6.53
2023-01-02T13:24:50.806Z,9.05
2023-01-02T13:27:18.136Z,29.52
2023-01-02T13:29:46.277Z,13.38
2023-01-02T13:32:15.420Z,44.35
2023-01-02T13:35:42.531Z,23.73
2023-01-02T13:42:22.268Z,12.02
2023-01-02T13:45:21.695Z,11.03
2023-01-02T13:47:57.051Z,9.95
2023-01-02T13:50:34.052Z,15.95
2023-01-02T13:53:07.131Z,14.50
2023-01-02T13:56:07.462Z,10.57
2023-01-02T13:58:39.705Z,15.18
2023-01-02T14:01:23.380Z,15.05
2023-01-02T14:04:08.528Z,19.98
2023-01-02T14:06:42.142Z,21.77
2023-01-02T14:09:13.059Z,17.52
2023-01-02T14:11:56.259Z,16.33
2023-01-02T14:14:30.747Z,20.55
2023-01-02T14:17:10.941Z,18.70
2023-01-02T14:19:43.751Z,18.60
2023-01-02T14:22:14.490Z,17.10
2023-01-02T14:24:49.707Z,19.15
2023-01-02T14:27:18.546Z,18.42
2023-01-02T14:29:53.646Z,18.77
2023-01-02T14:32:36.172Z,18.67
2023-01-02T14:35:07.557Z,15.70
2023-01-02T14:37:41.679Z,15.57
2023-01-02T14:40:33.642Z,18.00
2023-01-02T14:43:34.369Z,29.65
2023-01-02T14:46:04.268Z,32.47
2023-01-02T14:49:25.708Z,36.97
2023-01-02T14:52:05.355Z,38.55
2023-01-02T14:55:09.383Z,26.33
2023-01-02T14:57:45.511Z,24.25
2023-01-02T15:00:25.048Z,19.13
2023-01-02T15:03:23.180Z,19.40
2023-01-02T15:05:57.260Z,18.90
2023-01-02T15:08:44.773Z,50.58
2023-01-02T15:11:48.956Z,47.33
2023-01-02T15:14:23.657Z,26.80
2023-01-02T15:16:59.253Z,30.48
2023-01-02T15:19:29.462Z,30.73
2023-01-02T15:21:56.757Z,33.15
2023-01-02T15:24:26.998Z,44.08
2023-01-02T15:26:54.504Z,38.00
2023-01-02T15:29:29.019Z,32.63
2023-01-02T15:31:59.024Z,65.15
2023-01-02T15:34:31.126Z,67.32
2023-01-02T15:37:07.758Z,64.55
2023-01-02T15:39:39.358Z,60.42
2023-01-02T15:42:27.188Z,43.75
2023-01-02T15:45:13.938Z,157.05
2023-01-02T15:47:50.430Z,110.38
2023-01-02T15:50:28.440Z,88.47
2023-01-02T15:53:08.535Z,78.53
2023-01-02T15:55:40.912Z,85.80
2023-01-02T15:58:16.546Z,77.47
2023-01-02T16:00:45.135Z,75.15
2023-01-02T16:04:00.226Z,59.15
2023-01-02T16:06:31.532Z,63.58
2023-01-02T16:09:00.773Z,70.45
2023-01-02T16:11:27.974Z,60.47
2023-01-02T16:14:20.040Z,77.28
2023-01-02T16:16:51.732Z,77.45
2023-01-02T16:19:32.188Z,71.63
2023-01-02T16:22:04.677Z,84.65
2023-01-02T16:24:35.416Z,64.13
2023-01-02T16:27:03.837Z,66.07
2023-01-02T16:29:30.841Z,64.95
2023-01-02T16:32:02.479Z,82.78
2023-01-02T16:34:36.106Z,89.28
2023-01-02T16:37:37.040Z,90.82
2023-01-02T16:41:01.692Z,80.80
2023-01-02T16:44:27.655Z,102.25
2023-01-02T16:46:56.842Z,116.55
2023-01-02T16:49:23.932Z,116.55
2023-01-02T16:51:54.260Z,67.60
2023-01-02T16:54:22.364Z,52.10
2023-01-02T16:57:07.161Z,81.53
2023-01-02T16:59:37.776Z,56.47
2023-01-02T17:02:04.943Z,57.85
2023-01-02T17:04:32.221Z,56.10
2023-01-02T17:06:59.497Z,47.60
2023-01-02T17:09:27.209Z,56.35
2023-01-02T17:12:00.817Z,46.88
2023-01-02T17:14:34.296Z,36.15
2023-01-02T17:17:02.117Z,31.02
2023-01-02T17:19:29.987Z,39.70
2023-01-02T17:21:57.266Z,40.88
2023-01-02T17:24:25.375Z,42.15
2023-01-02T17:26:52.620Z,38.47
2023-01-02T17:29:19.544Z,49.40
2023-01-02T17:31:46.802Z,66.47
2023-01-02T17:34:13.866Z,79.93
2023-01-02T17:36:42.835Z,90.78
2023-01-02T17:39:35.070Z,57.17
2023-01-02T17:42:02.390Z,55.00
2023-01-02T17:44:34.348Z,36.45
2023-01-02T17:47:30.923Z,40.78
2023-01-02T17:49:49.383Z,75.80
2023-01-02T17:52:50.944Z,47.15
2023-01-02T17:55:21.267Z,38.17
2023-01-02T17:57:49.149Z,28.60
2023-01-02T18:00:18.333Z,31.00
2023-01-02T18:02:49.516Z,40.03
2023-01-02T18:05:16.622Z,48.50
2023-01-02T18:07:43.779Z,48.25
2023-01-02T18:10:13.555Z,44.58
2023-01-02T18:12:44.785Z,41.45
2023-01-02T18:15:15.199Z,33.88
2023-01-02T18:17:43.033Z,27.53
2023-01-02T18:20:32.646Z,30.50
2023-01-02T18:23:00.449Z,32.60
2023-01-02T18:25:30.200Z,32.53
2023-01-02T18:28:18.041Z,23.77
2023-01-02T18:30:45.329Z,28.02
2023-01-02T18:33:18.753Z,44.28
2023-01-02T18:35:59.046Z,52.53
2023-01-02T18:38:31.238Z,58.65
2023-01-02T18:40:59.073Z,75.95
2023-01-02T18:43:25.803Z,72.47
2023-01-02T18:45:57.604Z,69.68
2023-01-02T18:48:25.411Z,91.72
2023-01-02T18:51:01.027Z,88.50
2023-01-02T18:53:39.452Z,84.47
2023-01-02T18:56:28.295Z,69.35
2023-01-02T18:59:31.342Z,62.85
2023-01-02T19:02:03.921Z,61.22
2023-01-02T19:04:38.203Z,58.58
2023-01-02T19:07:28.524Z,58.28
2023-01-02T19:10:07.848Z,53.00
2023-01-02T19:13:07.212Z,46.20
2023-01-02T19:15:36.983Z,43.22
2023-01-02T19:18:41.481Z,41.03
2023-01-02T19:21:21.299Z,46.67
2023-01-02T19:24:18.286Z,32.33
2023-01-02T19:26:49.690Z,27.60
2023-01-02T19:29:48.932Z,23.60
2023-01-02T19:32:43.879Z,24.75
2023-01-02T19:35:35.135Z,19.30
2023-01-02T19:38:39.229Z,20.23
2023-01-02T19:41:12.505Z,20.55
2023-01-02T19:44:46.492Z,24.15
2023-01-02T19:47:40.676Z,24.02
2023-01-02T19:50:37.719Z,21.55
2023-01-02T19:53:20.736Z,20.92
2023-01-02T19:55:48.861Z,24.70
2023-01-02T20:01:51.253Z,20.42
2023-01-02T20:04:19.532Z,21.15
2023-01-02T20:07:13.563Z,20.48
2023-01-02T20:09:45.059Z,21.58
2023-01-02T20:13:02.301Z,25.90
2023-01-02T20:15:39.987Z,26.23
2023-01-02T20:18:09.018Z,25.48
2023-01-02T20:20:36.796Z,26.08
2023-01-02T20:23:14.890Z,25.38
2023-01-02T20:25:50.467Z,26.70
2023-01-02T20:28:45.943Z,135.52
2023-01-02T20:31:16.068Z,67.72
2023-01-02T20:33:52.649Z,28.92
2023-01-02T20:36:29.693Z,19.63
2023-01-02T20:38:56.991Z,19.55
2023-01-02T20:41:26.073Z,19.25
2023-01-02T20:43:56.184Z,20.20
2023-01-02T20:46:23.785Z,24.58
2023-01-02T20:49:01.551Z,28.02
2023-01-02T20:51:39.029Z,29.55
2023-01-02T20:54:22.714Z,27.67
2023-01-02T20:56:50.924Z,28.00
2023-01-02T20:59:18.338Z,34.85
2023-01-02T21:05:31.323Z,26.92
2023-01-02T21:07:58.772Z,23.60
2023-01-02T21:10:29.249Z,19.80
2023-01-02T21:13:08.424Z,20.95
2023-01-02T21:15:42.677Z,21.75
2023-01-02T21:18:10.477Z,23.60
2023-01-02T21:20:42.575Z,26.35
2023-01-02T21:23:12.936Z,29.98
2023-01-02T21:25:40.079Z,27.73
2023-01-02T21:28:07.664Z,28.88
2023-01-02T21:30:35.162Z,29.02
2023-01-02T21:33:02.349Z,27.08
2023-01-02T21:35:30.366Z,28.95
2023-01-02T21:37:57.452Z,29.35
2023-01-02T21:40:24.619Z,27.33
2023-01-02T21:42:51.891Z,22.33
2023-01-02T21:45:19.057Z,19.73
2023-01-02T21:47:47.479Z,23.50
2023-01-02T21:50:15.286Z,26.50
2023-01-02T21:52:42.261Z,29.15
2023-01-02T21:55:09.559Z,28.75
2023-01-02T21:58:11.795Z,23.10
2023-01-02T22:00:29.086Z,22.08
2023-01-02T22:02:56.711Z,16.17
2023-01-02T22:05:24.049Z,16.20
2023-01-02T22:07:51.111Z,15.70
2023-01-02T22:10:18.245Z,19.55
2023-01-02T22:12:45.360Z,22.63
2023-01-02T22:15:13.138Z,22.63
2023-01-02T22:17:40.306Z,18.23
2023-01-02T22:20:07.879Z,17.45
2023-01-02T22:22:35.040Z,18.48
2023-01-02T22:25:02.478Z,19.67
2023-01-02T22:27:30.187Z,21.95
2023-01-02T22:32:47.590Z,20.87
2023-01-02T22:35:14.566Z,22.08
2023-01-02T22:37:41.658Z,21.30
2023-01-02T22:40:09.097Z,14.98
2023-01-02T22:43:10.437Z,12.57
2023-01-02T22:45:49.009Z,11.30
2023-01-02T22:48:38.290Z,11.07
2023-01-02T22:51:11.972Z,11.23
2023-01-02T22:53:40.088Z,13.00
2023-01-02T22:56:13.358Z,14.25
2023-01-02T22:58:40.670Z,14.32
2023-01-02T23:01:20.662Z,17.05
2023-01-02T23:03:49.038Z,19.02
2023-01-02T23:06:21.866Z,16.05
2023-01-02T23:08:52.697Z,17.48
2023-01-02T23:11:22.067Z,19.80
2023-01-02T23:13:54.715Z,14.45
2023-01-02T23:16:42.447Z,14.10
2023-01-02T23:19:19.505Z,14.30
2023-01-02T23:21:47.860Z,16.77
2023-01-02T23:24:19.871Z,16.70
2023-01-02T23:26:49.813Z,15.00
2023-01-02T23:29:17.485Z,15.50
2023-01-02T23:31:47.253Z,14.90
2023-01-02T23:34:19.015Z,16.30
2023-01-02T23:39:18.723Z,14.90
2023-01-02T23:41:46.756Z,13.35
2023-01-02T23:44:14.874Z,15.15
2023-01-02T23:46:45.365Z,16.00
2023-01-02T23:49:19.125Z,13.82
2023-01-02T23:51:46.407Z,11.75
2023-01-02T23:54:16.371Z,11.18
2023-01-02T23:56:47.111Z,12.27
2023-01-02T23:59:18.591Z,12.35
